Time;durP1;ratioP1;P1;durP2;ratioP2;P2;SDS_P1;SDS_P2;PMS_P1;PMS_P2;Temp;Humidity;BMP_temperature;BMP_pressure;BME280_temperature;BME280_humidity;BME280_pressure;Samples;Min_cycle;Max_cycle;Signal;HPM_P1;HPM_P2
2023/08/22 00:02:27;;;;;;;7.38;6.68;;;;;;;27.10;51.70;99896.75;5118322;28;20320;-68
2023/08/22 00:04:53;;;;;;;7.70;6.80;;;;;;;27.09;51.93;99897.84;5119053;28;20043;-68
2023/08/22 00:07:18;;;;;;;8.13;6.55;;;;;;;27.10;52.18;99902.19;5118194;28;20063;-68
2023/08/22 00:09:44;;;;;;;7.97;7.03;;;;;;;27.11;51.91;99895.66;5117612;28;20089;-69
2023/08/22 00:12:09;;;;;;;9.05;7.70;;;;;;;26.95;52.48;99895.56;5118990;28;20042;-69
2023/08/22 00:14:35;;;;;;;8.38;6.97;;;;;;;27.01;52.53;99893.69;5119382;28;20057;-69
2023/08/22 00:17:00;;;;;;;8.68;6.97;;;;;;;26.96;52.34;99899.91;5119140;28;20055;-68
2023/08/22 00:19:26;;;;;;;7.65;6.85;;;;;;;27.01;52.59;99897.22;5119288;28;20052;-69
2023/08/22 00:21:51;;;;;;;8.90;8.05;;;;;;;27.09;51.91;99887.78;5118715;28;20040;-68
2023/08/22 00:24:17;;;;;;;8.57;7.20;;;;;;;27.11;52.00;99901.09;5118238;28;20038;-69
2023/08/22 00:26:42;;;;;;;8.30;7.30;;;;;;;27.09;52.24;99895.13;5118300;28;20047;-69
2023/08/22 00:29:07;;;;;;;9.40;7.53;;;;;;;27.09;52.19;99900.56;5118046;28;20035;-68
2023/08/22 00:31:33;;;;;;;7.57;6.75;;;;;;;27.10;52.48;99900.28;5118110;28;20044;-69
2023/08/22 00:34:01;;;;;;;7.70;7.00;;;;;;;27.12;52.04;99892.69;5118770;28;20096;-69
2023/08/22 00:36:26;;;;;;;10.10;7.28;;;;;;;27.10;51.63;99891.31;5118993;28;20035;-68
2023/08/22 00:38:52;;;;;;;9.13;7.32;;;;;;;27.09;51.79;99893.22;5118721;28;20214;-67
2023/08/22 00:41:17;;;;;;;8.20;7.40;;;;;;;26.90;52.62;99892.81;5118014;28;20031;-68
2023/08/22 00:43:43;;;;;;;7.78;6.90;;;;;;;26.92;52.43;99900.69;5118132;28;20036;-69
2023/08/22 00:46:09;;;;;;;8.85;7.38;;;;;;;26.87;52.07;99892.53;5118636;28;20059;-68
2023/08/22 00:48:34;;;;;;;8.00;7.20;;;;;;;26.79;52.60;99902.00;5118500;28;20038;-68
2023/08/22 00:51:00;;;;;;;8.40;7.50;;;;;;;26.76;52.52;99899.00;5118550;28;20046;-69
2023/08/22 00:53:26;;;;;;;12.35;7.82;;;;;;;26.51;53.47;99889.63;5118603;28;20098;-69
2023/08/22 00:55:52;;;;;;;8.38;7.53;;;;;;;26.44;54.16;99893.66;5118521;28;20085;-68
2023/08/22 00:58:17;;;;;;;9.20;7.60;;;;;;;26.37;54.49;99899.31;5118293;28;20067;-69
2023/08/22 01:00:44;;;;;;;9.38;7.43;;;;;;;26.43;54.41;99902.88;5118055;28;20063;-68
2023/08/22 01:03:10;;;;;;;9.50;6.93;;;;;;;26.49;53.73;99901.84;5118341;28;20035;-69
2023/08/22 01:05:41;;;;;;;9.82;7.25;;;;;;;26.47;54.13;99899.38;5118647;28;20047;-68
2023/08/22 01:08:17;;;;;;;10.48;8.43;;;;;;;26.05;55.48;99899.34;5117391;28;20039;-68
2023/08/22 01:10:48;;;;;;;9.63;7.82;;;;;;;26.05;55.59;99897.44;5117855;28;20417;-68
2023/08/22 01:13:22;;;;;;;10.27;7.90;;;;;;;26.12;55.40;99894.50;5117979;28;20031;-68
2023/08/22 01:15:50;;;;;;;10.38;7.93;;;;;;;26.18;55.44;99898.09;5118564;28;20048;-68
2023/08/22 01:18:18;;;;;;;9.80;7.68;;;;;;;25.97;55.96;99891.66;5118522;28;20038;-69
2023/08/22 01:20:44;;;;;;;9.43;7.55;;;;;;;26.12;55.84;99893.69;5121047;28;20114;-69
2023/08/22 01:23:09;;;;;;;9.38;8.38;;;;;;;26.02;56.26;99906.09;5121384;28;20259;-69
2023/08/22 01:25:36;;;;;;;10.50;8.25;;;;;;;25.95;56.37;99897.34;5121939;28;20038;-69
2023/08/22 01:28:14;;;;;;;10.70;7.82;;;;;;;25.89;56.69;99900.28;5121906;28;20047;-69
2023/08/22 01:30:55;;;;;;;9.30;7.53;;;;;;;25.75;57.56;99892.56;5122012;28;20046;-68
2023/08/22 01:33:33;;;;;;;9.98;7.55;;;;;;;25.88;56.79;99906.78;5121201;28;20040;-69
2023/08/22 01:35:59;;;;;;;11.23;7.65;;;;;;;25.84;56.85;99900.22;5121945;28;20037;-68
2023/08/22 01:38:27;;;;;;;10.82;8.10;;;;;;;25.76;57.32;99898.81;5121831;28;20067;-69
2023/08/22 01:40:53;;;;;;;11.10;8.15;;;;;;;25.71;57.39;99907.72;5121624;28;20051;-69
2023/08/22 01:43:19;;;;;;;8.82;7.97;;;;;;;25.71;57.51;99899.56;5121749;28;20077;-68
2023/08/22 01:45:45;;;;;;;12.32;8.70;;;;;;;25.76;57.51;99904.22;5121727;28;20051;-68
2023/08/22 01:48:10;;;;;;;10.43;7.60;;;;;;;25.80;57.60;99909.97;5121843;28;20031;-68
2023/08/22 01:50:36;;;;;;;9.30;7.45;;;;;;;25.86;57.10;99917.06;5122053;28;20367;-69
2023/08/22 01:53:01;;;;;;;8.82;7.93;;;;;;;25.88;56.90;99918.44;5121362;28;20035;-69
2023/08/22 01:55:26;;;;;;;8.60;7.55;;;;;;;25.80;56.72;99913.50;5120762;28;20341;-68
2023/08/22 01:57:52;;;;;;;10.85;8.23;;;;;;;25.69;57.49;99911.75;5120402;28;20039;-68
2023/08/22 02:00:18;;;;;;;13.07;7.63;;;;;;;25.65;57.87;99916.03;5121004;28;20035;-69
2023/08/22 02:02:43;;;;;;;8.25;7.40;;;;;;;25.61;57.35;99904.88;5120536;28;20439;-68
2023/08/22 02:05:08;;;;;;;10.85;7.93;;;;;;;25.54;57.66;99906.16;5120845;28;20237;-68
2023/08/22 02:07:35;;;;;;;9.55;8.65;;;;;;;25.44;58.29;99913.13;5120743;28;20028;-68
2023/08/22 02:10:00;;;;;;;8.70;7.80;;;;;;;25.37;58.39;99900.84;5120444;28;20055;-68
2023/08/22 02:12:26;;;;;;;9.70;7.72;;;;;;;25.35;58.43;99908.41;5120979;28;20040;-67
2023/08/22 02:14:53;;;;;;;9.85;8.43;;;;;;;25.38;58.43;99908.72;5120728;28;20336;-69
2023/08/22 02:17:21;;;;;;;10.25;8.18;;;;;;;25.34;58.29;99902.16;5120553;28;20356;-69
2023/08/22 02:19:47;;;;;;;10.00;8.15;;;;;;;25.38;58.45;99907.91;5121322;28;20031;-68
2023/08/22 02:22:13;;;;;;;10.07;8.20;;;;;;;25.30;58.37;99906.47;5121076;28;20042;-69
2023/08/22 02:24:38;;;;;;;10.32;7.95;;;;;;;25.24;58.64;99909.38;5121574;28;20031;-69
2023/08/22 02:27:04;;;;;;;9.90;8.13;;;;;;;25.24;58.53;99902.06;5121043;28;20036;-68
2023/08/22 02:29:30;;;;;;;8.65;7.75;;;;;;;25.17;58.73;99903.31;5121086;28;20031;-69
2023/08/22 02:31:55;;;;;;;8.73;7.82;;;;;;;25.26;58.47;99904.50;5119521;28;20134;-69
2023/08/22 02:34:21;;;;;;;9.73;8.00;;;;;;;25.10;59.23;99901.63;5120694;28;20020;-68
2023/08/22 02:36:47;;;;;;;9.13;8.23;;;;;;;25.21;59.17;99905.28;5120230;28;20047;-69
2023/08/22 02:39:13;;;;;;;8.88;7.55;;;;;;;25.25;59.14;99905.59;5119941;28;20299;-68
2023/08/22 02:41:38;;;;;;;9.85;8.02;;;;;;;25.11;59.61;99903.28;5120021;28;20043;-68
2023/08/22 02:44:04;;;;;;;10.70;8.73;;;;;;;25.08;59.88;99902.97;5119480;28;20039;-67
2023/08/22 02:46:29;;;;;;;11.63;8.55;;;;;;;25.09;60.01;99912.72;5119389;28;20031;-68
2023/08/22 02:48:55;;;;;;;8.82;8.02;;;;;;;24.96;60.10;99915.75;5119703;28;20039;-69
2023/08/22 02:51:20;;;;;;;9.77;7.95;;;;;;;25.20;59.58;99919.06;5119875;28;20036;-68
2023/08/22 02:53:46;;;;;;;10.32;8.45;;;;;;;25.24;59.47;99915.59;5119789;28;20060;-68
2023/08/22 02:56:11;;;;;;;8.98;7.70;;;;;;;25.25;59.32;99911.81;5119979;28;20032;-69
2023/08/22 02:58:37;;;;;;;10.57;8.18;;;;;;;25.27;59.40;99906.97;5119592;28;20040;-69
2023/08/22 03:01:04;;;;;;;8.60;7.78;;;;;;;25.34;58.95;99920.31;5119504;28;20030;-69
2023/08/22 03:03:31;;;;;;;8.85;7.80;;;;;;;25.41;58.83;99918.22;5119848;28;20035;-68
2023/08/22 03:06:00;;;;;;;9.38;7.88;;;;;;;25.05;60.15;99917.00;5120049;28;20076;-68
2023/08/22 03:08:26;;;;;;;10.13;7.85;;;;;;;25.24;59.28;99917.50;5119055;28;20042;-68
2023/08/22 03:10:52;;;;;;;9.98;8.32;;;;;;;25.29;59.07;99920.25;5119051;28;20036;-69
2023/08/22 03:13:17;;;;;;;9.75;8.70;;;;;;;25.12;59.67;99925.75;5119869;28;20103;-69
2023/08/22 03:15:45;;;;;;;10.55;7.95;;;;;;;25.12;60.18;99923.06;5119541;28;20042;-69
2023/08/22 03:18:10;;;;;;;10.95;8.85;;;;;;;25.34;59.51;99926.56;5119094;28;20040;-69
2023/08/22 03:20:36;;;;;;;8.80;7.85;;;;;;;25.36;58.97;99929.84;5119075;28;20313;-68
2023/08/22 03:23:01;;;;;;;9.35;8.43;;;;;;;25.39;58.82;99923.09;5119738;28;20035;-68
2023/08/22 03:25:27;;;;;;;8.93;7.93;;;;;;;25.29;59.41;99921.09;5120410;28;20042;-69
2023/08/22 03:27:52;;;;;;;12.30;8.40;;;;;;;25.31;59.76;99926.25;5119199;28;20058;-68
2023/08/22 03:30:17;;;;;;;12.63;8.05;;;;;;;25.16;60.39;99928.78;5119206;28;20039;-69
2023/08/22 03:32:43;;;;;;;9.45;8.00;;;;;;;25.20;60.11;99935.34;5118567;28;20089;-68
2023/08/22 03:35:08;;;;;;;10.95;8.43;;;;;;;25.19;60.42;99929.09;5118776;28;20087;-68
2023/08/22 03:37:34;;;;;;;13.48;8.43;;;;;;;25.22;60.16;99938.63;5118581;28;20044;-69
2023/08/22 03:40:01;;;;;;;9.80;7.97;;;;;;;25.20;60.24;99938.88;5118795;28;20035;-69
2023/08/22 03:42:26;;;;;;;11.95;8.27;;;;;;;25.21;60.27;99936.97;5118868;28;20380;-69
2023/08/22 03:44:52;;;;;;;11.70;9.10;;;;;;;25.21;60.44;99943.22;5119395;28;20049;-68
2023/08/22 03:47:17;;;;;;;13.20;8.60;;;;;;;25.28;60.36;99949.25;5119059;28;20027;-68
2023/08/22 03:49:43;;;;;;;24.13;21.42;;;;;;;25.31;60.14;99947.94;5119580;28;20047;-69
2023/08/22 03:52:08;;;;;;;37.47;25.45;;;;;;;25.34;59.95;99950.13;5119254;28;20386;-69
2023/08/22 03:54:34;;;;;;;33.53;30.23;;;;;;;25.33;60.28;99941.19;5119124;28;20224;-68
2023/08/22 03:56:59;;;;;;;35.22;31.95;;;;;;;25.31;60.38;99942.50;5119617;28;20035;-68
2023/08/22 03:59:25;;;;;;;32.72;29.88;;;;;;;25.18;61.10;99938.31;5119328;28;20035;-69
2023/08/22 04:01:50;;;;;;;34.83;29.42;;;;;;;25.14;61.24;99943.41;5119203;28;20362;-68
2023/08/22 04:04:17;;;;;;;27.55;23.45;;;;;;;25.22;61.07;99947.56;5119159;28;20039;-69
2023/08/22 04:06:42;;;;;;;21.60;18.10;;;;;;;25.31;60.69;99948.75;5118592;28;20036;-69
2023/08/22 04:09:08;;;;;;;16.75;13.48;;;;;;;25.33;60.87;99946.59;5118709;28;20038;-69
2023/08/22 04:11:34;;;;;;;13.35;9.57;;;;;;;25.29;61.04;99947.38;5118163;28;20042;-69
2023/08/22 04:13:59;;;;;;;13.48;8.98;;;;;;;25.27;61.11;99942.19;5119028;28;20040;-68
2023/08/22 04:16:25;;;;;;;10.25;8.48;;;;;;;25.29;61.61;99948.19;5119152;28;20039;-68
2023/08/22 04:18:50;;;;;;;9.57;8.52;;;;;;;25.17;61.79;99950.22;5118750;28;20442;-68
2023/08/22 04:21:16;;;;;;;10.32;8.73;;;;;;;25.34;61.50;99950.97;5119134;28;20044;-69
2023/08/22 04:23:41;;;;;;;13.95;8.45;;;;;;;25.42;61.03;99952.41;5118821;28;20048;-68
2023/08/22 04:26:06;;;;;;;12.50;7.90;;;;;;;25.53;61.25;99956.03;5119013;28;20046;-69
2023/08/22 04:28:33;;;;;;;12.93;8.68;;;;;;;25.62;60.32;99959.94;5118602;28;20079;-69
2023/08/22 04:30:59;;;;;;;11.98;9.02;;;;;;;25.65;59.99;99959.41;5118851;28;20071;-69
2023/08/22 04:33:25;;;;;;;13.35;8.85;;;;;;;25.78;59.90;99965.28;5119149;28;20035;-68
2023/08/22 04:35:51;;;;;;;13.65;9.48;;;;;;;25.82;59.29;99956.63;5118460;28;20047;-68
2023/08/22 04:38:16;;;;;;;13.93;8.80;;;;;;;25.93;59.02;99970.03;5118449;28;20027;-69
2023/08/22 04:40:45;;;;;;;17.30;8.82;;;;;;;25.93;58.85;99963.78;5118867;28;20100;-69
2023/08/22 04:43:10;;;;;;;13.93;8.27;;;;;;;25.93;58.97;99966.50;5118821;28;20032;-69
2023/08/22 04:45:36;;;;;;;21.63;9.10;;;;;;;25.99;59.28;99968.19;5118267;28;20234;-69
2023/08/22 04:48:02;;;;;;;18.23;8.90;;;;;;;26.05;59.15;99973.44;5118901;28;20064;-69
2023/08/22 04:50:29;;;;;;;22.02;9.50;;;;;;;26.13;58.95;99982.19;5118980;28;20202;-69
2023/08/22 04:52:54;;;;;;;17.40;9.50;;;;;;;26.00;58.73;99981.50;5118555;28;20270;-69
2023/08/22 04:55:20;;;;;;;24.50;10.63;;;;;;;26.16;58.34;99985.19;5121108;28;20386;-69
2023/08/22 04:57:45;;;;;;;17.05;9.27;;;;;;;26.30;58.29;99982.84;5122975;28;20040;-68
2023/08/22 05:00:11;;;;;;;20.48;10.25;;;;;;;26.41;58.58;99981.88;5122930;28;20087;-68
2023/08/22 05:02:37;;;;;;;11.50;8.90;;;;;;;26.51;57.92;99983.84;5122388;28;20137;-69
2023/08/22 05:05:03;;;;;;;15.48;9.25;;;;;;;26.73;57.47;99979.94;5122558;28;20047;-69
2023/08/22 05:07:29;;;;;;;20.00;8.77;;;;;;;26.93;56.88;99983.84;5121925;28;20375;-69
2023/08/22 05:09:55;;;;;;;15.32;8.32;;;;;;;27.10;56.38;99983.72;5121818;28;20023;-68
2023/08/22 05:12:21;;;;;;;18.75;8.77;;;;;;;27.21;56.02;99982.69;5122708;28;20044;-69
2023/08/22 05:14:46;;;;;;;27.67;8.98;;;;;;;27.44;55.38;99982.22;5122187;28;20091;-70
2023/08/22 05:17:12;;;;;;;13.02;8.13;;;;;;;27.49;54.61;99984.16;5122295;28;20294;-68
2023/08/22 05:19:38;;;;;;;12.57;8.35;;;;;;;27.56;53.90;99987.44;5122978;28;20035;-68
2023/08/22 05:22:03;;;;;;;13.68;8.70;;;;;;;27.57;53.74;99987.16;5121475;28;20042;-69
2023/08/22 05:24:28;;;;;;;20.98;9.05;;;;;;;27.66;53.26;99974.69;5121783;28;20234;-69
2023/08/22 05:26:54;;;;;;;12.55;8.40;;;;;;;27.76;52.89;99978.53;5121618;28;20046;-69
2023/08/22 05:29:20;;;;;;;14.93;9.15;;;;;;;27.89;52.26;99986.97;5121259;28;20027;-68
2023/08/22 05:31:46;;;;;;;12.93;7.65;;;;;;;28.06;51.88;99980.47;5120911;28;20043;-69
2023/08/22 05:34:11;;;;;;;14.55;7.97;;;;;;;28.11;51.15;99978.59;5121024;28;20042;-68
2023/08/22 05:36:37;;;;;;;11.60;8.38;;;;;;;28.27;50.51;99987.63;5121000;28;20034;-69
2023/08/22 05:39:03;;;;;;;13.80;9.40;;;;;;;28.47;50.69;99982.16;5122087;28;20313;-68
2023/08/22 05:41:29;;;;;;;18.13;9.00;;;;;;;28.63;49.68;99982.94;5122071;28;20047;-70
2023/08/22 05:43:54;;;;;;;14.63;7.97;;;;;;;28.76;49.02;99978.84;5121649;28;20258;-69
2023/08/22 05:46:20;;;;;;;11.73;8.63;;;;;;;28.90;48.78;99983.47;5121670;28;20236;-69
2023/08/22 05:48:45;;;;;;;13.98;8.27;;;;;;;29.07;48.44;99977.69;5121424;28;20081;-69
2023/08/22 05:51:11;;;;;;;14.75;7.75;;;;;;;29.19;47.88;99980.13;5121331;28;20035;-69
2023/08/22 05:53:36;;;;;;;18.92;9.30;;;;;;;29.27;47.84;99976.81;5121047;28;20032;-69
2023/08/22 05:56:02;;;;;;;12.40;8.10;;;;;;;29.28;46.48;99981.16;5121114;28;20115;-69
2023/08/22 05:58:27;;;;;;;13.50;7.88;;;;;;;29.28;46.39;99980.34;5120742;28;20106;-70
2023/08/22 06:00:53;;;;;;;9.23;7.13;;;;;;;29.32;45.59;99981.44;5120627;28;20040;-69
2023/08/22 06:03:18;;;;;;;11.68;7.70;;;;;;;29.38;45.50;99989.31;5120930;28;20036;-69
2023/08/22 06:05:44;;;;;;;15.65;7.75;;;;;;;29.45;45.05;99986.31;5121130;28;20045;-69
2023/08/22 06:08:09;;;;;;;15.75;8.38;;;;;;;29.61;45.29;99978.84;5121121;28;20138;-69
2023/08/22 06:10:35;;;;;;;12.30;8.38;;;;;;;29.74;43.96;99980.94;5120481;28;20044;-68
2023/08/22 06:13:00;;;;;;;15.05;7.45;;;;;;;29.75;43.19;99974.41;5120824;28;20031;-69
2023/08/22 06:15:26;;;;;;;15.48;7.82;;;;;;;29.90;42.31;99978.94;5121601;28;20044;-69
2023/08/22 06:17:51;;;;;;;12.95;7.57;;;;;;;29.77;42.77;99972.19;5120792;28;20047;-69
2023/08/22 06:20:16;;;;;;;15.13;8.02;;;;;;;29.93;43.13;99975.63;5120755;28;20039;-70
2023/08/22 06:22:42;;;;;;;15.13;8.73;;;;;;;30.00;42.18;99979.69;5121457;28;20032;-69
2023/08/22 06:25:08;;;;;;;17.08;8.85;;;;;;;30.06;42.27;99977.75;5121467;28;20039;-69
2023/08/22 06:27:33;;;;;;;12.30;7.60;;;;;;;30.26;42.28;99977.63;5121168;28;20043;-69
2023/08/22 06:30:00;;;;;;;12.55;9.27;;;;;;;30.30;43.45;99978.66;5120873;28;20036;-69
2023/08/22 06:32:26;;;;;;;11.65;8.23;;;;;;;30.44;42.18;99976.91;5120831;28;20067;-70
2023/08/22 06:34:51;;;;;;;9.80;8.60;;;;;;;30.64;42.03;99975.09;5121141;28;20041;-69
2023/08/22 06:37:16;;;;;;;11.75;10.43;;;;;;;30.68;40.99;99971.50;5120836;28;20031;-69
2023/08/22 06:39:42;;;;;;;12.00;8.10;;;;;;;30.71;40.01;99979.13;5120791;28;20038;-68
2023/08/22 06:42:07;;;;;;;12.75;7.68;;;;;;;30.96;39.67;99971.75;5119510;28;20059;-68
2023/08/22 06:44:33;;;;;;;14.45;7.10;;;;;;;31.08;38.73;99969.41;5120275;28;20051;-69
2023/08/22 06:46:58;;;;;;;8.98;7.68;;;;;;;30.99;38.65;99973.91;5120587;28;20038;-69
2023/08/22 06:49:24;;;;;;;9.57;7.03;;;;;;;31.24;38.36;99968.19;5120788;28;20035;-69
2023/08/22 06:51:49;;;;;;;9.45;7.10;;;;;;;31.55;38.17;99973.25;5120119;28;20054;-69
2023/08/22 06:54:15;;;;;;;8.27;7.00;;;;;;;31.67;36.83;99970.88;5120059;28;20100;-69
2023/08/22 06:56:40;;;;;;;8.45;6.40;;;;;;;31.79;36.38;99979.47;5120412;28;20051;-69
2023/08/22 06:59:06;;;;;;;10.65;7.30;;;;;;;31.90;37.06;99970.00;5120576;28;20041;-69
2023/08/22 07:01:31;;;;;;;8.20;7.15;;;;;;;31.96;36.26;99976.22;5120533;28;20040;-69
2023/08/22 07:03:57;;;;;;;8.60;6.95;;;;;;;32.10;36.09;99968.06;5119696;28;20031;-69
2023/08/22 07:06:22;;;;;;;9.75;7.15;;;;;;;32.23;36.20;99976.31;5119396;28;20035;-67
2023/08/22 07:08:47;;;;;;;13.77;6.90;;;;;;;32.33;36.40;99967.97;5120195;28;20035;-69
2023/08/22 07:11:13;;;;;;;8.07;7.28;;;;;;;32.42;36.46;99965.34;5120144;28;20050;-67
2023/08/22 07:13:38;;;;;;;10.68;7.63;;;;;;;32.52;35.81;99961.63;5119949;28;20088;-69
2023/08/22 07:16:04;;;;;;;9.88;7.30;;;;;;;32.69;35.19;99962.66;5119991;28;20040;-68
2023/08/22 07:18:30;;;;;;;9.50;7.35;;;;;;;32.84;35.23;99963.50;5119336;28;20048;-68
2023/08/22 07:20:55;;;;;;;8.32;6.50;;;;;;;33.06;34.47;99958.13;5119582;28;20064;-67
2023/08/22 07:23:22;;;;;;;9.25;7.13;;;;;;;33.22;35.05;99955.88;5119521;28;20066;-68
2023/08/22 07:25:49;;;;;;;8.82;7.38;;;;;;;33.30;34.04;99960.69;5120095;28;20098;-68
2023/08/22 07:28:15;;;;;;;8.48;7.50;;;;;;;33.47;34.23;99957.31;5119729;28;20043;-69
2023/08/22 07:30:40;;;;;;;9.18;7.10;;;;;;;33.54;33.48;99960.44;5119974;28;20024;-68
2023/08/22 07:33:06;;;;;;;8.43;6.82;;;;;;;33.69;33.70;99949.09;5119372;28;20271;-68
2023/08/22 07:35:34;;;;;;;11.18;6.85;;;;;;;33.84;32.92;99957.00;5119407;28;20047;-68
2023/08/22 07:37:59;;;;;;;7.30;6.60;;;;;;;33.94;31.67;99953.22;5119677;28;20051;-68
2023/08/22 07:40:25;;;;;;;8.07;6.63;;;;;;;33.99;32.18;99953.09;5120035;28;20044;-68
2023/08/22 07:42:50;;;;;;;7.30;6.60;;;;;;;34.15;32.03;99956.25;5119637;28;20047;-69
2023/08/22 07:45:16;;;;;;;10.00;6.90;;;;;;;34.10;31.61;99951.69;5118771;28;20058;-68
2023/08/22 07:47:41;;;;;;;8.05;7.22;;;;;;;34.27;31.78;99946.31;5119315;28;20043;-68
2023/08/22 07:50:07;;;;;;;10.52;7.15;;;;;;;34.33;31.31;99947.03;5118964;28;20039;-69
2023/08/22 07:52:32;;;;;;;9.98;6.93;;;;;;;34.19;31.00;99943.50;5118812;28;20043;-68
2023/08/22 07:54:58;;;;;;;7.53;6.55;;;;;;;34.32;31.24;99948.16;5118935;28;20050;-69
2023/08/22 07:57:23;;;;;;;8.50;5.88;;;;;;;34.44;29.81;99944.84;5118747;28;20043;-68
2023/08/22 07:59:48;;;;;;;11.07;7.15;;;;;;;34.55;30.53;99938.75;5118572;28;20233;-67
2023/08/22 08:02:14;;;;;;;7.68;6.28;;;;;;;34.75;30.92;99942.88;5119694;28;20032;-68
2023/08/22 08:04:40;;;;;;;8.80;8.00;;;;;;;34.60;29.66;99921.31;5119679;28;20229;-68
2023/08/22 08:07:05;;;;;;;7.70;6.85;;;;;;;34.91;28.88;99936.97;5118289;28;20035;-68
2023/08/22 08:09:32;;;;;;;13.50;9.63;;;;;;;34.99;29.17;99939.75;5119066;28;20046;-66
2023/08/22 08:11:58;;;;;;;7.85;6.22;;;;;;;34.92;28.48;99936.66;5119112;28;20032;-68
2023/08/22 08:14:23;;;;;;;8.10;6.57;;;;;;;34.98;28.55;99932.63;5118981;28;20046;-67
2023/08/22 08:16:49;;;;;;;9.00;6.68;;;;;;;35.04;29.67;99936.03;5118286;28;20035;-68
2023/08/22 08:19:15;;;;;;;7.97;6.05;;;;;;;35.25;28.77;99933.50;5118650;28;20203;-68
2023/08/22 08:21:41;;;;;;;7.75;6.13;;;;;;;35.38;29.06;99933.41;5117796;28;20368;-68
2023/08/22 08:24:07;;;;;;;9.20;7.22;;;;;;;35.47;28.11;99927.91;5118087;28;20040;-68
2023/08/22 08:26:32;;;;;;;8.45;5.57;;;;;;;35.55;28.48;99935.38;5118021;28;20034;-69
2023/08/22 08:28:57;;;;;;;7.32;5.43;;;;;;;35.57;28.20;99932.28;5118133;28;20045;-68
2023/08/22 08:31:23;;;;;;;7.80;6.43;;;;;;;35.67;26.73;99929.22;5122249;28;20035;-69
2023/08/22 08:33:48;;;;;;;7.97;6.10;;;;;;;35.73;26.67;99923.22;5122912;28;20329;-70
2023/08/22 08:36:14;;;;;;;7.10;6.03;;;;;;;35.86;27.65;99920.63;5138784;27;20031;-69
2023/08/22 08:38:40;;;;;;;7.38;6.68;;;;;;;35.95;28.19;99926.94;5122900;28;20213;-68
2023/08/22 08:41:06;;;;;;;7.78;6.28;;;;;;;35.92;26.67;99931.16;5122980;28;20041;-70
2023/08/22 08:43:33;;;;;;;11.27;5.85;;;;;;;35.86;27.30;99923.38;5123205;28;20073;-69
2023/08/22 08:45:59;;;;;;;6.40;5.13;;;;;;;35.98;26.92;99926.28;5122736;28;20079;-69
2023/08/22 08:48:25;;;;;;;6.22;5.63;;;;;;;35.77;26.97;99931.63;5122463;28;20039;-69
2023/08/22 08:50:51;;;;;;;5.60;5.10;;;;;;;35.64;27.00;99933.41;5122665;28;20100;-68
2023/08/22 08:53:17;;;;;;;6.57;5.97;;;;;;;35.29;27.58;99928.97;5122841;28;20027;-69
2023/08/22 08:55:45;;;;;;;6.43;5.55;;;;;;;35.19;27.19;99925.38;5122908;28;20062;-69
2023/08/22 08:58:10;;;;;;;6.28;5.75;;;;;;;35.18;27.64;99925.72;5122509;28;20126;-69
2023/08/22 09:00:36;;;;;;;6.60;5.50;;;;;;;34.92;27.85;99924.84;5122909;28;20046;-67
2023/08/22 09:03:02;;;;;;;6.03;5.47;;;;;;;35.18;28.41;99915.50;5122375;28;20072;-69
2023/08/22 09:05:29;;;;;;;7.15;5.68;;;;;;;35.33;28.13;99914.25;5122530;28;20244;-68
2023/08/22 09:07:55;;;;;;;7.90;5.97;;;;;;;35.41;28.52;99909.94;5122387;28;20055;-68
2023/08/22 09:10:34;;;;;;;7.70;5.80;;;;;;;35.54;28.06;99906.22;5122751;28;20088;-68
2023/08/22 09:13:04;;;;;;;6.70;5.65;;;;;;;35.59;27.26;99903.28;5122666;28;20329;-68
2023/08/22 09:15:30;;;;;;;7.82;5.30;;;;;;;35.52;27.58;99900.22;5122422;28;20317;-68
2023/08/22 09:17:56;;;;;;;6.32;5.72;;;;;;;35.53;28.48;99898.25;5122108;28;20047;-69
2023/08/22 09:20:22;;;;;;;7.00;6.40;;;;;;;35.63;29.29;99893.25;5122265;28;20284;-69
2023/08/22 09:22:48;;;;;;;5.65;5.15;;;;;;;35.70;27.00;99898.25;5122242;28;20039;-69
2023/08/22 09:25:13;;;;;;;6.63;5.68;;;;;;;35.55;26.54;99887.75;5122019;28;20040;-69
2023/08/22 09:27:39;;;;;;;6.45;5.47;;;;;;;35.39;27.76;99888.22;5122087;28;20035;-70
2023/08/22 09:30:05;;;;;;;6.70;5.85;;;;;;;35.32;27.87;99884.31;5122161;28;20322;-69
2023/08/22 09:32:31;;;;;;;9.25;5.43;;;;;;;35.23;28.53;99878.75;5121658;28;20032;-70
2023/08/22 09:35:01;;;;;;;6.25;5.65;;;;;;;35.16;27.81;99884.75;5122125;28;20085;-68
2023/08/22 09:37:36;;;;;;;6.22;5.63;;;;;;;34.94;28.07;99879.38;5121586;28;20024;-69
2023/08/22 09:40:08;;;;;;;7.30;5.55;;;;;;;34.88;27.99;99875.97;5121796;28;20058;-69
2023/08/22 09:42:37;;;;;;;6.53;5.93;;;;;;;34.85;28.54;99871.09;5122199;28;20225;-70
2023/08/22 09:45:05;;;;;;;7.70;5.60;;;;;;;34.81;28.41;99866.53;5121706;28;20055;-68
2023/08/22 09:47:31;;;;;;;6.03;5.53;;;;;;;34.86;29.38;99866.41;5121143;28;20035;-68
2023/08/22 09:50:04;;;;;;;5.95;5.35;;;;;;;34.92;29.01;99870.63;5122021;28;20041;-69
2023/08/22 09:52:30;;;;;;;7.05;5.57;;;;;;;34.86;28.14;99863.66;5121362;28;20062;-69
2023/08/22 09:54:56;;;;;;;6.47;5.40;;;;;;;34.70;28.54;99862.44;5122068;28;20261;-69
2023/08/22 09:57:24;;;;;;;6.43;5.82;;;;;;;34.74;28.29;99863.44;5121530;28;20096;-69
2023/08/22 09:59:50;;;;;;;13.50;6.43;;;;;;;34.70;28.70;99865.19;5121585;28;20035;-69
2023/08/22 10:02:18;;;;;;;7.20;6.00;;;;;;;34.71;28.24;99855.81;5103022;28;20345;-69
2023/08/22 10:04:44;;;;;;;7.32;6.00;;;;;;;34.71;28.71;99858.56;5121475;28;20037;-69
2023/08/22 10:07:09;;;;;;;7.35;5.57;;;;;;;34.75;29.04;99856.81;5120955;28;20027;-68
2023/08/22 10:09:35;;;;;;;6.20;5.68;;;;;;;34.49;28.47;99859.47;5120992;28;20035;-68
2023/08/22 10:12:04;;;;;;;6.75;5.95;;;;;;;34.46;28.29;99854.63;5120861;28;20426;-70
2023/08/22 10:14:34;;;;;;;6.95;5.97;;;;;;;34.44;28.79;99854.13;5121483;28;20050;-69
2023/08/22 10:17:01;;;;;;;6.25;5.60;;;;;;;34.57;28.69;99855.94;5120638;28;20043;-70
2023/08/22 10:19:27;;;;;;;6.65;5.40;;;;;;;34.55;28.59;99845.25;5120708;28;20042;-70
2023/08/22 10:21:53;;;;;;;7.57;6.38;;;;;;;34.57;28.79;99854.00;5120676;28;20125;-70
2023/08/22 10:24:29;;;;;;;8.43;6.03;;;;;;;34.64;27.96;99855.47;5121094;28;20045;-69
2023/08/22 10:27:02;;;;;;;7.18;6.47;;;;;;;34.63;27.96;99851.09;5120831;28;20042;-69
2023/08/22 10:30:06;;;;;;;7.78;6.63;;;;;;;34.61;27.83;99854.19;5120947;28;20039;-69
2023/08/22 10:32:32;;;;;;;6.97;6.30;;;;;;;34.65;27.71;99846.09;5120862;28;20063;-69
2023/08/22 10:35:03;;;;;;;7.95;5.95;;;;;;;34.59;28.42;99845.44;5121619;28;20263;-70
2023/08/22 10:37:28;;;;;;;7.40;6.68;;;;;;;34.67;28.06;99843.84;5120063;28;20043;-70
2023/08/22 10:39:58;;;;;;;6.70;6.05;;;;;;;34.65;28.20;99835.09;5120452;28;20037;-70
2023/08/22 10:42:25;;;;;;;7.45;6.32;;;;;;;34.69;28.39;99836.88;5120124;28;20374;-69
2023/08/22 10:44:56;;;;;;;8.23;6.38;;;;;;;34.76;28.35;99828.97;5119867;28;20077;-69
2023/08/22 10:47:21;;;;;;;9.00;6.35;;;;;;;34.86;28.01;99828.69;5119967;28;20031;-68
2023/08/22 10:50:00;;;;;;;7.13;6.40;;;;;;;34.76;28.06;99828.16;5119949;28;20081;-69
2023/08/22 10:52:31;;;;;;;6.35;5.68;;;;;;;34.68;28.20;99828.97;5119514;28;20039;-69
2023/08/22 10:55:10;;;;;;;6.78;6.18;;;;;;;34.75;28.31;99819.09;5120599;28;20063;-68
2023/08/22 10:57:38;;;;;;;6.68;5.97;;;;;;;34.85;28.77;99816.06;5120332;28;20206;-69
2023/08/22 11:00:19;;;;;;;9.50;6.38;;;;;;;34.96;29.18;99827.59;5120680;28;20031;-69
2023/08/22 11:02:49;;;;;;;6.88;6.20;;;;;;;34.93;30.17;99805.41;5120313;28;20051;-69
2023/08/22 11:05:15;;;;;;;9.43;6.10;;;;;;;34.92;28.20;99810.09;5119754;28;20319;-68
2023/08/22 11:07:46;;;;;;;6.45;5.85;;;;;;;34.86;28.27;99814.13;5120034;28;20048;-69
2023/08/22 11:10:14;;;;;;;7.00;6.25;;;;;;;34.81;28.10;99817.00;5119743;28;20035;-68
2023/08/22 11:12:40;;;;;;;9.07;6.65;;;;;;;34.80;28.25;99818.16;5119077;28;20039;-67
2023/08/22 11:15:07;;;;;;;10.00;6.43;;;;;;;34.86;27.92;99825.16;5119505;28;20358;-67
2023/08/22 11:17:32;;;;;;;7.38;6.40;;;;;;;34.79;27.73;99811.03;5119950;28;20050;-69
2023/08/22 11:19:58;;;;;;;6.82;6.20;;;;;;;34.73;27.73;99815.06;5120419;28;20325;-69
2023/08/22 11:22:24;;;;;;;8.55;6.68;;;;;;;34.79;28.43;99809.09;5120017;28;20031;-68
2023/08/22 11:24:51;;;;;;;7.25;6.53;;;;;;;34.89;28.11;99813.50;5120443;28;20104;-69
2023/08/22 11:27:18;;;;;;;6.80;6.20;;;;;;;34.86;28.08;99814.94;5119827;28;20145;-68